AIQ3022 VTSP-VTBD
Flight info
| Callsign | AIQ3022 |
|---|---|
| Flight time | 1h 10m |
| Altitude | 35000 |
| Route | IGEVI1A IGEVI Y5 EGUBO Y99 HOTEL SABAI3A |
| Aircraft | A320/M-SDE3FGHIRWY/LB1 |
Departure
| Time | 2026-05-06 17:14 |
|---|---|
| Airport | Phuket International Airport (VTSP) |
Arrival
| Time | 2026-05-06 18:24 |
|---|---|
| Airport | Don Mueang International Airport (VTBD) |
| Time | Latitude | Longitude | Altitude | Speed | Heading |
|---|---|---|---|---|---|
| 2026-05-06 16:47 | 8.10903 | 98.30553 | 28 ft | 0 kts | 105° |
| 2026-05-06 17:07 | 8.10905 | 98.30548 | 27 ft | 2 kts | 104° |
| 2026-05-06 17:08 | 8.10910 | 98.30523 | 27 ft | 4 kts | 94° |
| 2026-05-06 17:08 | 8.10909 | 98.30496 | 27 ft | 4 kts | 74° |
| 2026-05-06 17:08 | 8.10901 | 98.30478 | 27 ft | 1 kts | 58° |
| 2026-05-06 17:08 | 8.10899 | 98.30475 | 27 ft | 0 kts | 58° |
| 2026-05-06 17:11 | 8.10905 | 98.30482 | 27 ft | 6 kts | 43° |
| 2026-05-06 17:11 | 8.11001 | 98.30475 | 27 ft | 19 kts | 352° |
| 2026-05-06 17:11 | 8.11028 | 98.30463 | 27 ft | 10 kts | 317° |
| 2026-05-06 17:11 | 8.11038 | 98.30383 | 27 ft | 11 kts | 284° |
| 2026-05-06 17:12 | 8.11092 | 98.30350 | 26 ft | 7 kts | 357° |
| 2026-05-06 17:12 | 8.11094 | 98.30349 | 26 ft | 0 kts | 357° |
| 2026-05-06 17:12 | 8.11106 | 98.30349 | 26 ft | 9 kts | 357° |
| 2026-05-06 17:12 | 8.11196 | 98.30360 | 27 ft | 14 kts | 58° |
| 2026-05-06 17:13 | 8.11203 | 98.30420 | 27 ft | 8 kts | 85° |
| 2026-05-06 17:13 | 8.11223 | 98.30616 | 28 ft | 61 kts | 84° |
| 2026-05-06 17:13 | 8.11283 | 98.31258 | 31 ft | 121 kts | 84° |
| 2026-05-06 17:13 | 8.11379 | 98.32259 | 69 ft | 164 kts | 84° |
| 2026-05-06 17:14 | 8.11493 | 98.33418 | 675 ft | 165 kts | 82° |
| 2026-05-06 17:14 | 8.11605 | 98.34571 | 1384 ft | 165 kts | 84° |
| 2026-05-06 17:14 | 8.11719 | 98.35770 | 1794 ft | 179 kts | 85° |
| 2026-05-06 17:14 | 8.11840 | 98.37054 | 2213 ft | 189 kts | 85° |
| 2026-05-06 17:15 | 8.11966 | 98.38438 | 2497 ft | 208 kts | 86° |
| 2026-05-06 17:15 | 8.12106 | 98.39971 | 2790 ft | 231 kts | 85° |
| 2026-05-06 17:15 | 8.12263 | 98.41665 | 3161 ft | 252 kts | 85° |
| 2026-05-06 17:15 | 8.12429 | 98.43452 | 3845 ft | 259 kts | 85° |
| 2026-05-06 17:16 | 8.12599 | 98.45273 | 4605 ft | 263 kts | 86° |
| 2026-05-06 17:16 | 8.12774 | 98.47120 | 5368 ft | 266 kts | 86° |
| 2026-05-06 17:16 | 8.12950 | 98.48986 | 6120 ft | 269 kts | 85° |
| 2026-05-06 17:16 | 8.13126 | 98.50879 | 6822 ft | 273 kts | 85° |
| 2026-05-06 17:17 | 8.13305 | 98.52797 | 7531 ft | 276 kts | 85° |
| 2026-05-06 17:17 | 8.13487 | 98.54734 | 8248 ft | 279 kts | 85° |
| 2026-05-06 17:17 | 8.13677 | 98.56694 | 8946 ft | 283 kts | 83° |
| 2026-05-06 17:17 | 8.14268 | 98.58593 | 9641 ft | 288 kts | 62° |
| 2026-05-06 17:18 | 8.15539 | 98.60171 | 10138 ft | 300 kts | 41° |
| 2026-05-06 17:18 | 8.17442 | 98.61165 | 10431 ft | 319 kts | 15° |
| 2026-05-06 17:18 | 8.19676 | 98.61384 | 10983 ft | 327 kts | 3° |
| 2026-05-06 17:18 | 8.21957 | 98.61456 | 11603 ft | 330 kts | 4° |
| 2026-05-06 17:19 | 8.24263 | 98.61530 | 12240 ft | 333 kts | 4° |
| 2026-05-06 17:19 | 8.26590 | 98.61607 | 12865 ft | 336 kts | 4° |
| 2026-05-06 17:19 | 8.28937 | 98.61687 | 13498 ft | 339 kts | 4° |
| 2026-05-06 17:19 | 8.31301 | 98.61770 | 14058 ft | 342 kts | 4° |
| 2026-05-06 17:20 | 8.33685 | 98.61656 | 14581 ft | 347 kts | 352° |
| 2026-05-06 17:20 | 8.36016 | 98.60974 | 15075 ft | 353 kts | 338° |
| 2026-05-06 17:20 | 8.38167 | 98.59722 | 15195 ft | 371 kts | 323° |
| 2026-05-06 17:20 | 8.40128 | 98.57962 | 15481 ft | 381 kts | 318° |
| 2026-05-06 17:21 | 8.42100 | 98.56147 | 15931 ft | 386 kts | 319° |
| 2026-05-06 17:21 | 8.44098 | 98.54322 | 16411 ft | 389 kts | 319° |
| 2026-05-06 17:21 | 8.46121 | 98.52487 | 16910 ft | 392 kts | 319° |
| 2026-05-06 17:21 | 8.48159 | 98.50642 | 17389 ft | 395 kts | 319° |
| 2026-05-06 17:22 | 8.50209 | 98.48785 | 17879 ft | 397 kts | 319° |
| 2026-05-06 17:22 | 8.52276 | 98.46912 | 18304 ft | 401 kts | 319° |
| 2026-05-06 17:22 | 8.54358 | 98.45026 | 18729 ft | 403 kts | 319° |
| 2026-05-06 17:22 | 8.56484 | 98.43179 | 19132 ft | 404 kts | 326° |
| 2026-05-06 17:23 | 8.58935 | 98.41788 | 19478 ft | 405 kts | 339° |
| 2026-05-06 17:23 | 8.61648 | 98.41041 | 19875 ft | 405 kts | 353° |
| 2026-05-06 17:23 | 8.64461 | 98.40973 | 20243 ft | 405 kts | 7° |
| 2026-05-06 17:23 | 8.67205 | 98.41596 | 20602 ft | 406 kts | 22° |
| 2026-05-06 17:24 | 8.69803 | 98.42725 | 20951 ft | 407 kts | 25° |
| 2026-05-06 17:24 | 8.72397 | 98.43887 | 21324 ft | 410 kts | 25° |
| 2026-05-06 17:24 | 8.75018 | 98.45057 | 21698 ft | 412 kts | 24° |
| 2026-05-06 17:24 | 8.77653 | 98.46227 | 22051 ft | 415 kts | 25° |
| 2026-05-06 17:25 | 8.80301 | 98.47399 | 22400 ft | 417 kts | 25° |
| 2026-05-06 17:25 | 8.82973 | 98.48579 | 22745 ft | 420 kts | 25° |
| 2026-05-06 17:25 | 8.85657 | 98.49764 | 23096 ft | 422 kts | 25° |
| 2026-05-06 17:25 | 8.88357 | 98.50957 | 23417 ft | 425 kts | 25° |
| 2026-05-06 17:26 | 8.91072 | 98.52157 | 23713 ft | 427 kts | 25° |
| 2026-05-06 17:26 | 8.93798 | 98.53366 | 24006 ft | 429 kts | 25° |
| 2026-05-06 17:26 | 8.96530 | 98.54581 | 24309 ft | 430 kts | 25° |
| 2026-05-06 17:26 | 8.99277 | 98.55801 | 24589 ft | 432 kts | 25° |
| 2026-05-06 17:27 | 9.02031 | 98.57027 | 24880 ft | 433 kts | 25° |
| 2026-05-06 17:27 | 9.04794 | 98.58257 | 25153 ft | 435 kts | 25° |
| 2026-05-06 17:27 | 9.07568 | 98.59487 | 25436 ft | 436 kts | 25° |
| 2026-05-06 17:27 | 9.10357 | 98.60718 | 25707 ft | 438 kts | 25° |
| 2026-05-06 17:28 | 9.13158 | 98.61942 | 25982 ft | 439 kts | 25° |
| 2026-05-06 17:28 | 9.15973 | 98.63164 | 26255 ft | 441 kts | 24° |
| 2026-05-06 17:28 | 9.18799 | 98.64387 | 26525 ft | 443 kts | 24° |
| 2026-05-06 17:28 | 9.21634 | 98.65615 | 26780 ft | 444 kts | 25° |
| 2026-05-06 17:29 | 9.24478 | 98.66852 | 27032 ft | 446 kts | 24° |
| 2026-05-06 17:29 | 9.27332 | 98.68097 | 27299 ft | 447 kts | 25° |
| 2026-05-06 17:29 | 9.30196 | 98.69348 | 27549 ft | 449 kts | 25° |
| 2026-05-06 17:29 | 9.33029 | 98.70586 | 27802 ft | 450 kts | 25° |
| 2026-05-06 17:30 | 9.35913 | 98.71845 | 28051 ft | 452 kts | 24° |
| 2026-05-06 17:30 | 9.38806 | 98.73109 | 28291 ft | 453 kts | 24° |
| 2026-05-06 17:30 | 9.41706 | 98.74373 | 28531 ft | 455 kts | 26° |
| 2026-05-06 17:30 | 9.44617 | 98.75644 | 28735 ft | 457 kts | 25° |
| 2026-05-06 17:31 | 9.47540 | 98.76921 | 28987 ft | 458 kts | 25° |
| 2026-05-06 17:31 | 9.50472 | 98.78203 | 29243 ft | 460 kts | 25° |
| 2026-05-06 17:31 | 9.53417 | 98.79489 | 29472 ft | 461 kts | 25° |
| 2026-05-06 17:31 | 9.56369 | 98.80777 | 29682 ft | 463 kts | 25° |
| 2026-05-06 17:32 | 9.58364 | 98.81664 | 29807 ft | 464 kts | 26° |
| 2026-05-06 17:32 | 9.61301 | 98.83035 | 30004 ft | 465 kts | 27° |
| 2026-05-06 17:32 | 9.64179 | 98.84438 | 30163 ft | 466 kts | 27° |
| 2026-05-06 17:32 | 9.67089 | 98.85887 | 30291 ft | 465 kts | 27° |
| 2026-05-06 17:33 | 9.69994 | 98.87338 | 30411 ft | 465 kts | 26° |
| 2026-05-06 17:33 | 9.72907 | 98.88782 | 30522 ft | 467 kts | 27° |
| 2026-05-06 17:33 | 9.75846 | 98.90221 | 30650 ft | 470 kts | 26° |
| 2026-05-06 17:33 | 9.78794 | 98.91651 | 30836 ft | 471 kts | 26° |
| 2026-05-06 17:34 | 9.81754 | 98.93080 | 31067 ft | 470 kts | 26° |
| 2026-05-06 17:34 | 9.84699 | 98.94505 | 31301 ft | 470 kts | 26° |
| 2026-05-06 17:34 | 9.87653 | 98.95932 | 31537 ft | 469 kts | 27° |
| 2026-05-06 17:34 | 9.90601 | 98.97357 | 31786 ft | 468 kts | 27° |
| 2026-05-06 17:35 | 9.93537 | 98.98779 | 32031 ft | 468 kts | 26° |
| 2026-05-06 17:35 | 9.96474 | 99.00203 | 32285 ft | 467 kts | 27° |
| 2026-05-06 17:35 | 9.99401 | 99.01625 | 32530 ft | 467 kts | 27° |
| 2026-05-06 17:36 | 10.05247 | 99.04472 | 33029 ft | 466 kts | 28° |
| 2026-05-06 17:36 | 10.08166 | 99.05891 | 33285 ft | 465 kts | 27° |
| 2026-05-06 17:36 | 10.11088 | 99.07310 | 33473 ft | 466 kts | 28° |
| 2026-05-06 17:36 | 10.14017 | 99.08733 | 33680 ft | 467 kts | 28° |
| 2026-05-06 17:37 | 10.16948 | 99.10158 | 33905 ft | 467 kts | 27° |
| 2026-05-06 17:37 | 10.19875 | 99.11580 | 34126 ft | 466 kts | 27° |
| 2026-05-06 17:37 | 10.22797 | 99.13001 | 34356 ft | 465 kts | 27° |
| 2026-05-06 17:37 | 10.25716 | 99.14421 | 34581 ft | 465 kts | 27° |
| 2026-05-06 17:38 | 10.28628 | 99.15839 | 34763 ft | 464 kts | 27° |
| 2026-05-06 17:38 | 10.31535 | 99.17253 | 34821 ft | 462 kts | 27° |
| 2026-05-06 17:38 | 10.37307 | 99.20062 | 34824 ft | 459 kts | 27° |
| 2026-05-06 17:39 | 10.43063 | 99.22869 | 34822 ft | 459 kts | 27° |
| 2026-05-06 17:39 | 10.48821 | 99.25680 | 34828 ft | 460 kts | 27° |
| 2026-05-06 17:40 | 10.54595 | 99.28495 | 34827 ft | 460 kts | 27° |
| 2026-05-06 17:40 | 10.60374 | 99.31310 | 34832 ft | 461 kts | 28° |
| 2026-05-06 17:41 | 10.66161 | 99.34136 | 34840 ft | 462 kts | 27° |
| 2026-05-06 17:41 | 10.71759 | 99.37267 | 34831 ft | 457 kts | 38° |
| 2026-05-06 17:42 | 10.76526 | 99.41524 | 34820 ft | 456 kts | 44° |
| 2026-05-06 17:42 | 10.81195 | 99.45828 | 34818 ft | 456 kts | 43° |
| 2026-05-06 17:43 | 10.85910 | 99.50153 | 34818 ft | 457 kts | 43° |
| 2026-05-06 17:43 | 10.90633 | 99.54483 | 34821 ft | 457 kts | 42° |
| 2026-05-06 17:44 | 10.95356 | 99.58826 | 34820 ft | 458 kts | 43° |
| 2026-05-06 17:44 | 11.00075 | 99.63178 | 34826 ft | 458 kts | 42° |
| 2026-05-06 17:45 | 11.04800 | 99.67527 | 34826 ft | 458 kts | 42° |
| 2026-05-06 17:45 | 11.09517 | 99.71877 | 34828 ft | 458 kts | 43° |
| 2026-05-06 17:46 | 11.14242 | 99.76236 | 34830 ft | 458 kts | 43° |
| 2026-05-06 17:46 | 11.18139 | 99.79880 | 34829 ft | 458 kts | 43° |
| 2026-05-06 17:47 | 11.23886 | 99.85371 | 34822 ft | 458 kts | 43° |
| 2026-05-06 17:47 | 11.28540 | 99.89818 | 34826 ft | 459 kts | 43° |
| 2026-05-06 17:48 | 11.33213 | 99.94261 | 34822 ft | 459 kts | 43° |
| 2026-05-06 17:48 | 11.37857 | 99.98671 | 34826 ft | 460 kts | 43° |
| 2026-05-06 17:49 | 11.42536 | 100.03117 | 34826 ft | 460 kts | 43° |
| 2026-05-06 17:49 | 11.47624 | 100.07029 | 34831 ft | 459 kts | 27° |
| 2026-05-06 17:50 | 11.53666 | 100.09035 | 34823 ft | 458 kts | 8° |
| 2026-05-06 17:50 | 11.59975 | 100.10044 | 34818 ft | 459 kts | 9° |
| 2026-05-06 17:51 | 11.66285 | 100.11072 | 34823 ft | 460 kts | 9° |
| 2026-05-06 17:51 | 11.72600 | 100.12110 | 34823 ft | 460 kts | 9° |
| 2026-05-06 17:52 | 11.78922 | 100.13142 | 34823 ft | 460 kts | 9° |
| 2026-05-06 17:52 | 11.85248 | 100.14165 | 34826 ft | 460 kts | 9° |
| 2026-05-06 17:53 | 11.91567 | 100.15193 | 34825 ft | 460 kts | 9° |
| 2026-05-06 17:53 | 11.97884 | 100.16228 | 34830 ft | 460 kts | 9° |
| 2026-05-06 17:54 | 12.04194 | 100.17262 | 34829 ft | 459 kts | 9° |
| 2026-05-06 17:54 | 12.10467 | 100.18288 | 34827 ft | 459 kts | 9° |
| 2026-05-06 17:55 | 12.16773 | 100.19316 | 34828 ft | 459 kts | 9° |
| 2026-05-06 17:55 | 12.23084 | 100.20350 | 34825 ft | 459 kts | 9° |
| 2026-05-06 17:56 | 12.29390 | 100.21388 | 34831 ft | 459 kts | 9° |
| 2026-05-06 17:56 | 12.35699 | 100.22419 | 34833 ft | 459 kts | 9° |
| 2026-05-06 17:57 | 12.42007 | 100.23449 | 34824 ft | 459 kts | 9° |
| 2026-05-06 17:57 | 12.48334 | 100.24484 | 34669 ft | 464 kts | 9° |
| 2026-05-06 17:58 | 12.51521 | 100.25007 | 34415 ft | 463 kts | 9° |
| 2026-05-06 17:58 | 12.54716 | 100.25532 | 33644 ft | 467 kts | 9° |
| 2026-05-06 17:58 | 12.57908 | 100.26057 | 33081 ft | 462 kts | 8° |
| 2026-05-06 17:58 | 12.61071 | 100.26577 | 32506 ft | 459 kts | 8° |
| 2026-05-06 17:59 | 12.64214 | 100.27095 | 31940 ft | 456 kts | 8° |
| 2026-05-06 17:59 | 12.67331 | 100.27608 | 31365 ft | 453 kts | 9° |
| 2026-05-06 17:59 | 12.70432 | 100.28119 | 30799 ft | 450 kts | 9° |
| 2026-05-06 17:59 | 12.73512 | 100.28626 | 30241 ft | 447 kts | 9° |
| 2026-05-06 18:00 | 12.76581 | 100.29132 | 29653 ft | 445 kts | 9° |
| 2026-05-06 18:00 | 12.79629 | 100.29635 | 29088 ft | 441 kts | 9° |
| 2026-05-06 18:00 | 12.82646 | 100.30129 | 28566 ft | 437 kts | 9° |
| 2026-05-06 18:00 | 12.84627 | 100.30453 | 28208 ft | 434 kts | 9° |
| 2026-05-06 18:01 | 12.87596 | 100.30936 | 27681 ft | 430 kts | 9° |
| 2026-05-06 18:01 | 12.90535 | 100.31417 | 27178 ft | 426 kts | 9° |
| 2026-05-06 18:01 | 12.93448 | 100.31898 | 26674 ft | 422 kts | 9° |
| 2026-05-06 18:01 | 12.96332 | 100.32377 | 26198 ft | 418 kts | 9° |
| 2026-05-06 18:02 | 12.99187 | 100.32844 | 25710 ft | 414 kts | 7° |
| 2026-05-06 18:02 | 13.02047 | 100.32985 | 25243 ft | 410 kts | 359° |
| 2026-05-06 18:02 | 13.04886 | 100.32926 | 24770 ft | 406 kts | 359° |
| 2026-05-06 18:02 | 13.07701 | 100.32867 | 24290 ft | 404 kts | 359° |
| 2026-05-06 18:03 | 13.10501 | 100.32806 | 23816 ft | 401 kts | 359° |
| 2026-05-06 18:03 | 13.13284 | 100.32748 | 23316 ft | 399 kts | 360° |
| 2026-05-06 18:03 | 13.16054 | 100.32728 | 22779 ft | 396 kts | 0° |
| 2026-05-06 18:03 | 13.18799 | 100.32742 | 22297 ft | 393 kts | 1° |
| 2026-05-06 18:04 | 13.21518 | 100.32773 | 21804 ft | 390 kts | 1° |
| 2026-05-06 18:04 | 13.24205 | 100.32808 | 21540 ft | 381 kts | 1° |
| 2026-05-06 18:04 | 13.26834 | 100.32838 | 21190 ft | 375 kts | 1° |
| 2026-05-06 18:04 | 13.29440 | 100.32859 | 20750 ft | 373 kts | 0° |
| 2026-05-06 18:05 | 13.32021 | 100.32873 | 20374 ft | 369 kts | 0° |
| 2026-05-06 18:05 | 13.34578 | 100.32884 | 20008 ft | 366 kts | 1° |
| 2026-05-06 18:05 | 13.37113 | 100.32895 | 19650 ft | 363 kts | 1° |
| 2026-05-06 18:05 | 13.39623 | 100.32908 | 19305 ft | 359 kts | 0° |
| 2026-05-06 18:06 | 13.42116 | 100.32921 | 18961 ft | 357 kts | 0° |
| 2026-05-06 18:06 | 13.44599 | 100.32852 | 18618 ft | 356 kts | 353° |
| 2026-05-06 18:06 | 13.47019 | 100.32356 | 18272 ft | 354 kts | 347° |
| 2026-05-06 18:06 | 13.49410 | 100.31760 | 17896 ft | 352 kts | 347° |
| 2026-05-06 18:07 | 13.51784 | 100.31171 | 17551 ft | 350 kts | 347° |
| 2026-05-06 18:07 | 13.54149 | 100.30585 | 17200 ft | 349 kts | 347° |
| 2026-05-06 18:07 | 13.56508 | 100.30002 | 16879 ft | 348 kts | 347° |
| 2026-05-06 18:07 | 13.58859 | 100.29421 | 16534 ft | 347 kts | 347° |
| 2026-05-06 18:08 | 13.61198 | 100.28842 | 16195 ft | 345 kts | 347° |
| 2026-05-06 18:08 | 13.63527 | 100.28267 | 15859 ft | 343 kts | 347° |
| 2026-05-06 18:08 | 13.65841 | 100.27696 | 15525 ft | 341 kts | 347° |
| 2026-05-06 18:08 | 13.68111 | 100.27134 | 15194 ft | 340 kts | 347° |
| 2026-05-06 18:09 | 13.70402 | 100.26567 | 14864 ft | 338 kts | 347° |
| 2026-05-06 18:09 | 13.72709 | 100.26105 | 14530 ft | 337 kts | 356° |
| 2026-05-06 18:09 | 13.75034 | 100.26193 | 14198 ft | 335 kts | 10° |
| 2026-05-06 18:09 | 13.77253 | 100.26866 | 13877 ft | 333 kts | 24° |
| 2026-05-06 18:10 | 13.79266 | 100.28031 | 13542 ft | 332 kts | 32° |
| 2026-05-06 18:10 | 13.81230 | 100.29273 | 13199 ft | 331 kts | 32° |
| 2026-05-06 18:10 | 13.83187 | 100.30504 | 12931 ft | 326 kts | 31° |
| 2026-05-06 18:10 | 13.85084 | 100.31694 | 13156 ft | 317 kts | 31° |
| 2026-05-06 18:11 | 13.86977 | 100.32881 | 13015 ft | 318 kts | 31° |
| 2026-05-06 18:11 | 13.88886 | 100.34078 | 11930 ft | 322 kts | 32° |
| 2026-05-06 18:11 | 13.90772 | 100.35258 | 11772 ft | 313 kts | 32° |
| 2026-05-06 18:11 | 13.92612 | 100.36410 | 11544 ft | 307 kts | 32° |
| 2026-05-06 18:12 | 13.94428 | 100.37550 | 11252 ft | 304 kts | 32° |
| 2026-05-06 18:12 | 13.96230 | 100.38679 | 10943 ft | 302 kts | 32° |
| 2026-05-06 18:12 | 13.98015 | 100.39798 | 10738 ft | 300 kts | 32° |
| 2026-05-06 18:12 | 13.99793 | 100.40915 | 10440 ft | 299 kts | 32° |
| 2026-05-06 18:13 | 14.01561 | 100.42024 | 10127 ft | 297 kts | 32° |
| 2026-05-06 18:13 | 14.03323 | 100.43133 | 9768 ft | 298 kts | 32° |
| 2026-05-06 18:13 | 14.05100 | 100.44252 | 9346 ft | 299 kts | 32° |
| 2026-05-06 18:13 | 14.06868 | 100.45365 | 8960 ft | 297 kts | 32° |
| 2026-05-06 18:14 | 14.08611 | 100.46460 | 8776 ft | 289 kts | 32° |
| 2026-05-06 18:14 | 14.10282 | 100.47509 | 8622 ft | 273 kts | 33° |
| 2026-05-06 18:14 | 14.11851 | 100.48494 | 8416 ft | 257 kts | 33° |
| 2026-05-06 18:14 | 14.13354 | 100.49440 | 8137 ft | 252 kts | 32° |
| 2026-05-06 18:15 | 14.14848 | 100.50384 | 7891 ft | 253 kts | 33° |
| 2026-05-06 18:15 | 14.16346 | 100.51331 | 7635 ft | 251 kts | 33° |
| 2026-05-06 18:15 | 14.17832 | 100.52269 | 7378 ft | 250 kts | 33° |
| 2026-05-06 18:15 | 14.19165 | 100.53352 | 7198 ft | 240 kts | 51° |
| 2026-05-06 18:16 | 14.19991 | 100.54827 | 6910 ft | 238 kts | 73° |
| 2026-05-06 18:16 | 14.20203 | 100.56505 | 6615 ft | 238 kts | 95° |
| 2026-05-06 18:16 | 14.19992 | 100.58189 | 6382 ft | 235 kts | 98° |
| 2026-05-06 18:16 | 14.19776 | 100.59862 | 6072 ft | 237 kts | 98° |
| 2026-05-06 18:17 | 14.19565 | 100.61531 | 5862 ft | 233 kts | 98° |
| 2026-05-06 18:17 | 14.19356 | 100.63196 | 5583 ft | 232 kts | 98° |
| 2026-05-06 18:17 | 14.19035 | 100.64778 | 5414 ft | 220 kts | 114° |
| 2026-05-06 18:17 | 14.18230 | 100.66063 | 5241 ft | 216 kts | 135° |
| 2026-05-06 18:18 | 14.17016 | 100.66950 | 5014 ft | 216 kts | 156° |
| 2026-05-06 18:18 | 14.15581 | 100.67404 | 4787 ft | 216 kts | 164° |
| 2026-05-06 18:18 | 14.14129 | 100.67812 | 4564 ft | 216 kts | 163° |
| 2026-05-06 18:18 | 14.12686 | 100.68219 | 4304 ft | 217 kts | 164° |
| 2026-05-06 18:19 | 14.11183 | 100.68646 | 3735 ft | 231 kts | 164° |
| 2026-05-06 18:19 | 14.09620 | 100.69090 | 3284 ft | 232 kts | 164° |
| 2026-05-06 18:19 | 14.08055 | 100.69451 | 3111 ft | 229 kts | 175° |
| 2026-05-06 18:19 | 14.06492 | 100.69304 | 2947 ft | 226 kts | 195° |
| 2026-05-06 18:20 | 14.05069 | 100.68646 | 2721 ft | 223 kts | 207° |
| 2026-05-06 18:20 | 14.03726 | 100.67886 | 2444 ft | 216 kts | 207° |
| 2026-05-06 18:20 | 14.02449 | 100.67165 | 2206 ft | 200 kts | 207° |
| 2026-05-06 18:20 | 14.01266 | 100.66500 | 1953 ft | 188 kts | 206° |
| 2026-05-06 18:21 | 14.00139 | 100.65867 | 1738 ft | 180 kts | 207° |
| 2026-05-06 18:21 | 13.99078 | 100.65272 | 1510 ft | 170 kts | 207° |
| 2026-05-06 18:21 | 13.98082 | 100.64713 | 1284 ft | 157 kts | 207° |
| 2026-05-06 18:21 | 13.97163 | 100.64197 | 1078 ft | 147 kts | 208° |
| 2026-05-06 18:22 | 13.96275 | 100.63705 | 934 ft | 142 kts | 207° |
| 2026-05-06 18:22 | 13.95402 | 100.63225 | 712 ft | 141 kts | 207° |
| 2026-05-06 18:22 | 13.94535 | 100.62738 | 526 ft | 143 kts | 208° |
| 2026-05-06 18:22 | 13.93659 | 100.62230 | 316 ft | 146 kts | 208° |
| 2026-05-06 18:23 | 13.92765 | 100.61727 | 99 ft | 146 kts | 206° |
| 2026-05-06 18:23 | 13.91885 | 100.61238 | 20 ft | 134 kts | 207° |
| 2026-05-06 18:23 | 13.91203 | 100.60861 | 17 ft | 86 kts | 210° |
| 2026-05-06 18:23 | 13.90797 | 100.60625 | 19 ft | 58 kts | 207° |
| 2026-05-06 18:24 | 13.90465 | 100.60445 | 19 ft | 50 kts | 209° |
| 2026-05-06 18:24 | 13.90195 | 100.60289 | 17 ft | 22 kts | 206° |
| 2026-05-06 18:24 | 13.90152 | 100.60164 | 18 ft | 21 kts | 300° |
| 2026-05-06 18:24 | 13.90206 | 100.60065 | 18 ft | 15 kts | 299° |
| 2026-05-06 18:25 | 13.90252 | 100.59981 | 18 ft | 13 kts | 299° |
| 2026-05-06 18:25 | 13.90293 | 100.59905 | 17 ft | 12 kts | 299° |
| 2026-05-06 18:25 | 13.90330 | 100.59834 | 16 ft | 11 kts | 297° |
| 2026-05-06 18:25 | 13.90376 | 100.59788 | 17 ft | 8 kts | 354° |
| 2026-05-06 18:26 | 13.90420 | 100.59809 | 17 ft | 6 kts | 27° |
| 2026-05-06 18:26 | 13.90454 | 100.59827 | 17 ft | 5 kts | 27° |
| 2026-05-06 18:26 | 13.90480 | 100.59841 | 17 ft | 4 kts | 27° |
| 2026-05-06 18:26 | 13.90499 | 100.59851 | 17 ft | 3 kts | 28° |
| 2026-05-06 18:27 | 13.90503 | 100.59854 | 17 ft | 0 kts | 28° |
| 2026-05-06 18:36 | 13.90540 | 100.59874 | 17 ft | 10 kts | 29° |
| 2026-05-06 18:37 | 13.90598 | 100.59908 | 17 ft | 9 kts | 29° |
| 2026-05-06 18:37 | 13.90631 | 100.59927 | 17 ft | 8 kts | 30° |
| 2026-05-06 18:37 | 13.90714 | 100.59975 | 17 ft | 14 kts | 28° |
| 2026-05-06 18:37 | 13.90805 | 100.60025 | 17 ft | 15 kts | 29° |
| 2026-05-06 18:38 | 13.90901 | 100.60080 | 17 ft | 17 kts | 28° |
| 2026-05-06 18:38 | 13.91003 | 100.60129 | 17 ft | 14 kts | 2° |
| 2026-05-06 18:38 | 13.91032 | 100.60062 | 17 ft | 11 kts | 234° |
| 2026-05-06 18:38 | 13.90995 | 100.60002 | 17 ft | 9 kts | 270° |
| 2026-05-06 18:39 | 13.91032 | 100.59975 | 17 ft | 7 kts | 20° |
| 2026-05-06 18:39 | 13.91069 | 100.59996 | 17 ft | 5 kts | 30° |
| 2026-05-06 18:39 | 13.91080 | 100.60003 | 17 ft | 0 kts | 29° |